Time;durP1;ratioP1;P1;durP2;ratioP2;P2;SDS_P1;SDS_P2;PMS_P1;PMS_P2;Temp;Humidity;BMP_temperature;BMP_pressure;BME280_temperature;BME280_humidity;BME280_pressure;Samples;Min_cycle;Max_cycle;Signal;HPM_P1;HPM_P2
2023/01/27 00:02:55;;;;;;;55.90;28.55;;;;;;;;;;6261479;28;20086;-74
2023/01/27 00:05:57;;;;;;;102.80;46.20;;;;;;;;;;6260472;28;20052;-74
2023/01/27 00:08:59;;;;;;;91.03;42.03;;;;;;;;;;6260898;28;20123;-75
2023/01/27 00:15:21;;;;;;;97.90;44.40;;;;;;;;;;6260320;28;20044;-75
2023/01/27 00:18:24;;;;;;;88.90;44.20;;;;;;;;;;6263221;28;20057;-68
2023/01/27 00:24:45;;;;;;;26.45;15.95;;;;;;;;;;6262165;28;20057;-72
2023/01/27 00:27:47;;;;;;;24.55;14.50;;;;;;;;;;6263386;28;20069;-71
2023/01/27 00:30:50;;;;;;;29.75;15.82;;;;;;;;;;6259186;28;20381;-73
2023/01/27 00:33:53;;;;;;;24.67;13.98;;;;;;;;;;6262928;28;20079;-73
2023/01/27 00:36:54;;;;;;;30.17;16.08;;;;;;;;;;6261919;28;20053;-72
2023/01/27 00:39:56;;;;;;;26.05;15.40;;;;;;;;;;6260826;28;20045;-73
2023/01/27 00:42:57;;;;;;;28.17;15.63;;;;;;;;;;6259182;28;20384;-69
2023/01/27 00:46:01;;;;;;;26.42;14.77;;;;;;;;;;6264018;28;20107;-73
2023/01/27 00:49:02;;;;;;;25.67;14.73;;;;;;;;;;6261240;28;20041;-72
2023/01/27 00:52:04;;;;;;;27.35;14.50;;;;;;;;;;6257898;28;20146;-73
2023/01/27 00:55:07;;;;;;;27.88;14.00;;;;;;;;;;6261613;28;20061;-71
2023/01/27 00:58:09;;;;;;;23.90;13.85;;;;;;;;;;6262622;28;20057;-73
2023/01/27 01:01:13;;;;;;;26.52;13.43;;;;;;;;;;6260942;28;20053;-72
2023/01/27 01:04:15;;;;;;;27.65;13.55;;;;;;;;;;6258284;28;20064;-73
2023/01/27 01:07:17;;;;;;;22.70;12.93;;;;;;;;;;6263417;28;20037;-73
2023/01/27 01:10:19;;;;;;;26.75;13.30;;;;;;;;;;6262114;28;20071;-73
2023/01/27 01:13:21;;;;;;;23.75;12.77;;;;;;;;;;6263146;28;20061;-73
2023/01/27 01:16:25;;;;;;;22.85;12.65;;;;;;;;;;6261853;28;20347;-72
2023/01/27 01:19:26;;;;;;;25.73;13.73;;;;;;;;;;6261628;28;20276;-72
2023/01/27 01:22:28;;;;;;;28.13;13.32;;;;;;;;;;6263297;28;20057;-73
2023/01/27 01:25:30;;;;;;;25.02;13.02;;;;;;;;;;6260868;28;20052;-71
2023/01/27 01:28:31;;;;;;;24.48;12.57;;;;;;;;;;6265124;28;20053;-73
2023/01/27 01:31:35;;;;;;;23.58;12.23;;;;;;;;;;6264772;28;20280;-68
2023/01/27 01:34:36;;;;;;;23.58;12.45;;;;;;;;;;6265605;28;20175;-73
2023/01/27 01:37:38;;;;;;;24.55;11.98;;;;;;;;;;6265091;28;20280;-69
2023/01/27 01:40:41;;;;;;;24.70;11.52;;;;;;;;;;6267465;28;20056;-71
2023/01/27 01:43:43;;;;;;;21.63;12.10;;;;;;;;;;6266201;28;20056;-71
2023/01/27 01:46:46;;;;;;;22.73;10.73;;;;;;;;;;6267031;28;20049;-72
2023/01/27 01:49:48;;;;;;;35.70;12.38;;;;;;;;;;6264144;28;20052;-70
2023/01/27 01:52:49;;;;;;;21.95;11.52;;;;;;;;;;6268219;28;20044;-72
2023/01/27 01:55:51;;;;;;;22.10;10.75;;;;;;;;;;6271197;28;20099;-72
2023/01/27 01:58:53;;;;;;;19.83;10.07;;;;;;;;;;6270153;28;20052;-73
2023/01/27 02:01:58;;;;;;;19.35;10.70;;;;;;;;;;6267036;28;20052;-71
2023/01/27 02:05:04;;;;;;;22.52;11.43;;;;;;;;;;6270550;28;20057;-72
2023/01/27 02:08:10;;;;;;;21.95;11.07;;;;;;;;;;6266916;28;20057;-72
2023/01/27 02:11:12;;;;;;;19.13;10.57;;;;;;;;;;6269564;28;20047;-69
2023/01/27 02:14:15;;;;;;;22.83;10.60;;;;;;;;;;6265402;28;20117;-73
2023/01/27 02:17:18;;;;;;;22.58;11.80;;;;;;;;;;6270206;28;20119;-72
2023/01/27 02:20:27;;;;;;;21.15;11.27;;;;;;;;;;6262141;28;20049;-68
2023/01/27 02:23:40;;;;;;;18.65;10.05;;;;;;;;;;6267562;28;20103;-73
2023/01/27 02:26:44;;;;;;;20.00;10.93;;;;;;;;;;6264826;28;20497;-73
2023/01/27 02:29:46;;;;;;;21.08;10.40;;;;;;;;;;6262498;28;20060;-73
2023/01/27 02:32:47;;;;;;;18.60;10.48;;;;;;;;;;6260022;28;20107;-73
2023/01/27 02:35:55;;;;;;;20.52;10.23;;;;;;;;;;6262733;28;20110;-73
2023/01/27 02:38:57;;;;;;;18.33;9.63;;;;;;;;;;6264581;28;20073;-72
2023/01/27 02:42:01;;;;;;;20.10;10.23;;;;;;;;;;6265242;28;20056;-73
2023/01/27 02:45:03;;;;;;;19.38;11.13;;;;;;;;;;6261895;28;20115;-73
2023/01/27 02:48:05;;;;;;;21.25;10.80;;;;;;;;;;6264601;28;20116;-73
2023/01/27 02:51:07;;;;;;;19.60;10.70;;;;;;;;;;6264300;28;20232;-73
2023/01/27 02:54:09;;;;;;;19.75;9.82;;;;;;;;;;6264120;28;20053;-70
2023/01/27 02:57:12;;;;;;;21.25;11.05;;;;;;;;;;6265474;28;20056;-71
2023/01/27 03:00:14;;;;;;;19.67;11.07;;;;;;;;;;6267551;28;20045;-67
2023/01/27 03:03:15;;;;;;;19.98;11.32;;;;;;;;;;6267881;28;20044;-73
2023/01/27 03:06:17;;;;;;;18.25;10.25;;;;;;;;;;6265922;28;20052;-72
2023/01/27 03:09:19;;;;;;;22.77;11.32;;;;;;;;;;6266642;28;20037;-73
2023/01/27 03:12:22;;;;;;;20.73;11.35;;;;;;;;;;6266987;28;20049;-73
2023/01/27 03:18:46;;;;;;;21.60;11.30;;;;;;;;;;6268260;28;20049;-73
2023/01/27 03:21:49;;;;;;;18.42;10.15;;;;;;;;;;6259889;28;20112;-68
2023/01/27 03:24:51;;;;;;;19.40;10.70;;;;;;;;;;6268895;28;20067;-74
2023/01/27 03:27:54;;;;;;;20.60;9.27;;;;;;;;;;6267756;28;20380;-73
2023/01/27 03:30:59;;;;;;;18.70;9.90;;;;;;;;;;6271858;28;20057;-76
2023/01/27 03:34:01;;;;;;;19.33;9.60;;;;;;;;;;6269914;28;20053;-73
2023/01/27 03:47:01;;;;;;;18.48;8.95;;;;;;;;;;6264738;28;20270;-72
2023/01/27 03:50:09;;;;;;;21.52;9.88;;;;;;;;;;6262255;28;22411;-74
2023/01/27 03:53:11;;;;;;;17.35;8.93;;;;;;;;;;6259030;28;20048;-73
2023/01/27 03:56:13;;;;;;;16.27;8.70;;;;;;;;;;6262848;28;20060;-73
2023/01/27 03:59:16;;;;;;;17.52;9.38;;;;;;;;;;6263382;28;20061;-73
2023/01/27 04:08:56;;;;;;;17.65;9.02;;;;;;;;;;6262375;28;20201;-73
2023/01/27 04:12:00;;;;;;;17.95;9.75;;;;;;;;;;6260585;28;22696;-69
2023/01/27 04:15:04;;;;;;;16.52;9.20;;;;;;;;;;6263315;28;20075;-69
2023/01/27 04:18:05;;;;;;;16.65;8.88;;;;;;;;;;6263757;28;20128;-72
2023/01/27 04:21:07;;;;;;;17.30;8.80;;;;;;;;;;6266366;28;20045;-69
2023/01/27 04:24:16;;;;;;;20.75;10.15;;;;;;;;;;6262946;28;20053;-71
2023/01/27 04:27:19;;;;;;;20.90;9.60;;;;;;;;;;6262431;28;20058;-73
2023/01/27 04:30:22;;;;;;;20.70;9.43;;;;;;;;;;6265226;28;20108;-73
2023/01/27 04:33:23;;;;;;;15.85;8.90;;;;;;;;;;6261464;28;20057;-72
2023/01/27 04:36:25;;;;;;;17.75;9.75;;;;;;;;;;6257953;28;20052;-71
2023/01/27 04:39:27;;;;;;;17.02;9.18;;;;;;;;;;6260711;28;20057;-74
2023/01/27 04:42:28;;;;;;;15.55;9.35;;;;;;;;;;6263398;28;20045;-73
2023/01/27 04:45:31;;;;;;;19.77;10.00;;;;;;;;;;6262021;28;20095;-71
2023/01/27 04:48:33;;;;;;;18.17;10.13;;;;;;;;;;6260835;28;20065;-73
2023/01/27 04:51:35;;;;;;;18.27;10.23;;;;;;;;;;6265182;28;20852;-73
2023/01/27 04:54:37;;;;;;;19.67;10.88;;;;;;;;;;6261626;28;20045;-67
2023/01/27 04:57:38;;;;;;;23.45;10.82;;;;;;;;;;6259719;28;20120;-70
2023/01/27 05:00:41;;;;;;;21.73;11.95;;;;;;;;;;6262260;28;20045;-69
2023/01/27 05:03:43;;;;;;;18.77;10.40;;;;;;;;;;6266025;28;20269;-72
2023/01/27 05:06:45;;;;;;;23.65;10.93;;;;;;;;;;6266461;28;20049;-73
2023/01/27 05:09:46;;;;;;;23.73;11.38;;;;;;;;;;6265916;28;20044;-72
2023/01/27 05:12:48;;;;;;;18.27;10.02;;;;;;;;;;6267706;28;20041;-72
2023/01/27 05:15:51;;;;;;;19.15;10.20;;;;;;;;;;6268027;28;20053;-73
2023/01/27 05:18:53;;;;;;;20.25;11.13;;;;;;;;;;6266837;28;20252;-72
2023/01/27 05:21:54;;;;;;;19.80;11.15;;;;;;;;;;6267992;28;20045;-72
2023/01/27 05:24:56;;;;;;;21.48;11.32;;;;;;;;;;6263028;28;20045;-73
2023/01/27 05:27:58;;;;;;;21.45;11.32;;;;;;;;;;6268792;28;20053;-72
2023/01/27 05:31:06;;;;;;;28.25;12.00;;;;;;;;;;6266478;28;20057;-71
2023/01/27 05:34:08;;;;;;;24.88;11.70;;;;;;;;;;6264450;28;20049;-73
2023/01/27 05:37:10;;;;;;;25.60;12.48;;;;;;;;;;6263826;28;20056;-73
2023/01/27 05:40:13;;;;;;;24.00;11.93;;;;;;;;;;6264767;28;20065;-73
2023/01/27 05:43:14;;;;;;;22.08;11.43;;;;;;;;;;6268658;28;20053;-71
2023/01/27 05:46:19;;;;;;;22.67;11.50;;;;;;;;;;6262467;28;20244;-71
2023/01/27 05:49:21;;;;;;;24.73;11.90;;;;;;;;;;6267563;28;20110;-73
2023/01/27 05:52:22;;;;;;;25.00;12.32;;;;;;;;;;6262884;28;20835;-73
2023/01/27 05:55:24;;;;;;;22.73;11.75;;;;;;;;;;6265038;28;20057;-73
2023/01/27 05:58:27;;;;;;;29.42;12.32;;;;;;;;;;6263682;28;20329;-67
2023/01/27 06:01:31;;;;;;;25.50;13.32;;;;;;;;;;6263316;28;20053;-73
2023/01/27 06:04:33;;;;;;;26.08;11.82;;;;;;;;;;6265328;28;20065;-72
2023/01/27 06:07:35;;;;;;;24.05;12.27;;;;;;;;;;6263784;28;20045;-70
2023/01/27 06:10:37;;;;;;;24.00;10.98;;;;;;;;;;6263157;28;20049;-72
2023/01/27 06:13:39;;;;;;;23.88;12.25;;;;;;;;;;6263541;28;20213;-71
2023/01/27 06:16:45;;;;;;;26.40;11.98;;;;;;;;;;6264094;28;20052;-72
2023/01/27 06:19:47;;;;;;;24.77;12.35;;;;;;;;;;6262920;28;20048;-73
2023/01/27 06:22:49;;;;;;;25.67;12.35;;;;;;;;;;6265035;28;20372;-67
2023/01/27 06:25:51;;;;;;;25.60;12.35;;;;;;;;;;6264712;28;20321;-74
2023/01/27 06:28:53;;;;;;;25.42;11.90;;;;;;;;;;6257535;28;20064;-74
2023/01/27 06:31:56;;;;;;;22.50;10.77;;;;;;;;;;6264895;28;20050;-71
2023/01/27 06:34:57;;;;;;;23.90;12.23;;;;;;;;;;6265822;28;20068;-72
2023/01/27 06:38:00;;;;;;;20.25;10.85;;;;;;;;;;6266287;28;20142;-70
2023/01/27 06:41:02;;;;;;;26.05;11.57;;;;;;;;;;6263035;28;20075;-71
2023/01/27 06:44:04;;;;;;;20.67;11.27;;;;;;;;;;6262843;28;20045;-72
2023/01/27 06:47:07;;;;;;;20.13;11.35;;;;;;;;;;6263950;28;20057;-72
2023/01/27 06:50:10;;;;;;;21.27;11.88;;;;;;;;;;6266222;28;20861;-73
2023/01/27 06:53:12;;;;;;;25.77;10.68;;;;;;;;;;6264498;28;20060;-69
2023/01/27 06:56:14;;;;;;;23.30;10.60;;;;;;;;;;6263041;28;20092;-73
2023/01/27 06:59:15;;;;;;;21.60;10.75;;;;;;;;;;6259716;28;20378;-73
2023/01/27 07:02:18;;;;;;;26.70;11.73;;;;;;;;;;6265754;28;20077;-74
2023/01/27 07:05:20;;;;;;;19.25;10.38;;;;;;;;;;6263219;28;20057;-73
2023/01/27 07:08:22;;;;;;;24.00;11.38;;;;;;;;;;6261806;28;20237;-73
2023/01/27 07:11:24;;;;;;;23.33;10.43;;;;;;;;;;6262430;28;20190;-73
2023/01/27 07:14:26;;;;;;;22.73;10.38;;;;;;;;;;6261606;28;20455;-73
2023/01/27 07:17:29;;;;;;;19.73;10.38;;;;;;;;;;6265274;28;20056;-72
2023/01/27 07:20:31;;;;;;;23.67;11.27;;;;;;;;;;6266636;28;20060;-73
2023/01/27 07:23:33;;;;;;;21.23;11.38;;;;;;;;;;6264447;28;20061;-72
2023/01/27 07:26:34;;;;;;;20.85;10.50;;;;;;;;;;6263243;28;20052;-70
2023/01/27 07:29:36;;;;;;;23.00;10.80;;;;;;;;;;6260848;28;20056;-71
2023/01/27 07:32:39;;;;;;;20.05;10.77;;;;;;;;;;6261968;28;20145;-72
2023/01/27 07:35:41;;;;;;;18.38;9.50;;;;;;;;;;6258564;28;20317;-71
2023/01/27 07:38:43;;;;;;;24.90;11.43;;;;;;;;;;6261717;28;20082;-70
2023/01/27 07:41:44;;;;;;;20.63;10.23;;;;;;;;;;6264126;28;20056;-72
2023/01/27 07:44:46;;;;;;;20.10;10.73;;;;;;;;;;6262499;28;20053;-71
2023/01/27 07:47:49;;;;;;;20.75;10.48;;;;;;;;;;6261696;28;20215;-71
2023/01/27 07:50:51;;;;;;;19.23;9.98;;;;;;;;;;6263132;28;20146;-67
2023/01/27 07:53:52;;;;;;;18.80;10.50;;;;;;;;;;6264040;28;20119;-74
2023/01/27 07:56:54;;;;;;;27.08;10.85;;;;;;;;;;6264308;28;20071;-68
2023/01/27 07:59:56;;;;;;;18.92;10.60;;;;;;;;;;6263783;28;20111;-73
2023/01/27 08:02:59;;;;;;;21.73;10.52;;;;;;;;;;6260606;28;20057;-74
2023/01/27 08:06:04;;;;;;;26.00;12.05;;;;;;;;;;6261761;28;20049;-73
2023/01/27 08:09:06;;;;;;;21.83;11.25;;;;;;;;;;6262116;28;20057;-72
2023/01/27 08:12:08;;;;;;;19.90;10.63;;;;;;;;;;6262237;28;20045;-73
2023/01/27 08:15:10;;;;;;;21.38;10.93;;;;;;;;;;6263434;28;20064;-74
2023/01/27 08:18:13;;;;;;;21.02;11.18;;;;;;;;;;6260655;28;20056;-74
2023/01/27 08:21:15;;;;;;;22.30;10.88;;;;;;;;;;6262616;28;20069;-73
2023/01/27 08:24:16;;;;;;;20.55;10.93;;;;;;;;;;6258505;28;20048;-73
2023/01/27 08:27:18;;;;;;;22.50;10.30;;;;;;;;;;6259933;28;20053;-72
2023/01/27 08:30:20;;;;;;;25.38;10.73;;;;;;;;;;6261864;28;20045;-76
2023/01/27 08:33:24;;;;;;;24.45;11.55;;;;;;;;;;6258992;28;20384;-74
2023/01/27 08:36:25;;;;;;;20.70;11.40;;;;;;;;;;6261204;28;20049;-74
2023/01/27 08:39:27;;;;;;;23.45;10.63;;;;;;;;;;6260853;28;20395;-75
2023/01/27 08:42:29;;;;;;;20.25;11.10;;;;;;;;;;6266270;28;20053;-73
2023/01/27 08:45:31;;;;;;;22.70;10.13;;;;;;;;;;6259179;28;20053;-74
2023/01/27 08:48:35;;;;;;;20.67;10.73;;;;;;;;;;6265177;28;20623;-75
2023/01/27 08:51:36;;;;;;;17.48;10.07;;;;;;;;;;6263946;28;20056;-74
2023/01/27 08:54:38;;;;;;;21.05;9.77;;;;;;;;;;6264060;28;20103;-73
2023/01/27 08:57:39;;;;;;;19.52;10.95;;;;;;;;;;6260405;28;20075;-74
2023/01/27 09:00:41;;;;;;;19.05;9.90;;;;;;;;;;6261792;28;20065;-74
2023/01/27 09:03:44;;;;;;;20.35;9.70;;;;;;;;;;6262003;28;20053;-71
2023/01/27 09:06:47;;;;;;;17.53;9.93;;;;;;;;;;6264716;28;20060;-73
2023/01/27 09:09:49;;;;;;;17.08;8.95;;;;;;;;;;6262645;28;20052;-73
2023/01/27 09:12:51;;;;;;;15.60;9.15;;;;;;;;;;6261928;28;20390;-74
2023/01/27 09:15:53;;;;;;;18.58;9.40;;;;;;;;;;6261097;28;20053;-75
2023/01/27 09:18:57;;;;;;;15.52;8.80;;;;;;;;;;6261433;28;20367;-72
2023/01/27 09:21:58;;;;;;;21.45;10.40;;;;;;;;;;6261533;28;20071;-74
2023/01/27 09:25:00;;;;;;;21.58;11.95;;;;;;;;;;6262895;28;20107;-73
2023/01/27 09:28:02;;;;;;;17.75;10.13;;;;;;;;;;6257253;28;20060;-73
2023/01/27 09:31:03;;;;;;;20.08;9.15;;;;;;;;;;6260746;28;20049;-74
2023/01/27 09:34:06;;;;;;;18.83;9.30;;;;;;;;;;6262584;28;20330;-76
2023/01/27 09:37:10;;;;;;;18.63;9.30;;;;;;;;;;6257587;28;20118;-78
2023/01/27 09:40:19;;;;;;;15.15;8.40;;;;;;;;;;6262295;28;20068;-78
2023/01/27 09:43:36;;;;;;;18.98;8.40;;;;;;;;;;6260000;28;20065;-76
2023/01/27 09:46:50;;;;;;;13.88;8.05;;;;;;;;;;6255725;28;20045;-75
2023/01/27 09:50:15;;;;;;;16.27;7.90;;;;;;;;;;6266830;28;20053;-78
2023/01/27 09:53:38;;;;;;;13.35;7.80;;;;;;;;;;6264969;28;20052;-74
2023/01/27 09:56:46;;;;;;;16.08;8.50;;;;;;;;;;6269010;28;20053;-67
2023/01/27 10:00:07;;;;;;;19.13;8.48;;;;;;;;;;6262602;28;20330;-78
2023/01/27 10:03:25;;;;;;;15.15;8.18;;;;;;;;;;6265067;28;20148;-69
2023/01/27 10:06:39;;;;;;;15.10;7.65;;;;;;;;;;6264930;28;20102;-74
2023/01/27 10:09:53;;;;;;;18.00;9.00;;;;;;;;;;6268042;28;20114;-76
2023/01/27 10:13:13;;;;;;;13.98;7.30;;;;;;;;;;6264211;28;20048;-78
2023/01/27 10:16:26;;;;;;;13.63;7.55;;;;;;;;;;6266072;28;20152;-73
2023/01/27 10:19:40;;;;;;;14.35;6.65;;;;;;;;;;6268431;28;20057;-78
2023/01/27 10:22:49;;;;;;;32.30;7.82;;;;;;;;;;6266363;28;20086;-75
2023/01/27 10:25:57;;;;;;;13.20;6.88;;;;;;;;;;6263968;28;20057;-74
2023/01/27 10:29:05;;;;;;;15.10;7.40;;;;;;;;;;6265957;28;20045;-78
2023/01/27 10:32:08;;;;;;;15.20;7.10;;;;;;;;;;6265023;28;20308;-78
2023/01/27 10:35:17;;;;;;;15.85;7.53;;;;;;;;;;6243229;28;20052;-77
2023/01/27 10:38:31;;;;;;;12.75;7.13;;;;;;;;;;6266608;28;20091;-76
2023/01/27 10:41:37;;;;;;;12.50;7.32;;;;;;;;;;6265451;28;20325;-71
2023/01/27 10:44:48;;;;;;;17.25;8.45;;;;;;;;;;6266857;28;20050;-78
2023/01/27 10:48:03;;;;;;;14.52;7.68;;;;;;;;;;6265907;28;20106;-77
2023/01/27 10:51:08;;;;;;;13.85;7.20;;;;;;;;;;6267165;28;20264;-78
2023/01/27 10:54:14;;;;;;;13.02;6.93;;;;;;;;;;6264254;28;20060;-76
2023/01/27 10:57:19;;;;;;;14.13;6.93;;;;;;;;;;6264124;28;20058;-76
2023/01/27 11:00:28;;;;;;;12.02;7.00;;;;;;;;;;6264978;28;20056;-74
2023/01/27 11:03:33;;;;;;;12.20;6.82;;;;;;;;;;6262986;28;20046;-78
2023/01/27 11:06:37;;;;;;;15.65;7.22;;;;;;;;;;6263863;28;20107;-72
2023/01/27 11:09:43;;;;;;;13.75;6.72;;;;;;;;;;6265981;28;20087;-76
2023/01/27 11:12:48;;;;;;;14.18;6.97;;;;;;;;;;6264888;28;20053;-76
2023/01/27 11:15:50;;;;;;;12.05;6.32;;;;;;;;;;6263627;28;20107;-76
2023/01/27 11:18:57;;;;;;;16.92;7.53;;;;;;;;;;6263835;28;20288;-76
2023/01/27 11:22:00;;;;;;;11.73;6.88;;;;;;;;;;6265135;28;20053;-77
2023/01/27 11:25:06;;;;;;;14.70;7.68;;;;;;;;;;6265893;28;20052;-76
2023/01/27 11:28:17;;;;;;;15.00;7.30;;;;;;;;;;6264332;28;20123;-77
2023/01/27 11:31:24;;;;;;;15.13;6.90;;;;;;;;;;6263950;28;20290;-75
2023/01/27 11:34:30;;;;;;;16.00;7.93;;;;;;;;;;6265049;28;20103;-77
2023/01/27 11:37:35;;;;;;;14.93;7.47;;;;;;;;;;6263296;28;20052;-76
2023/01/27 11:40:40;;;;;;;12.13;6.70;;;;;;;;;;6264888;28;20066;-68
2023/01/27 11:43:42;;;;;;;13.15;6.25;;;;;;;;;;6263888;28;20049;-74
2023/01/27 11:46:45;;;;;;;13.20;7.47;;;;;;;;;;6262134;28;20092;-75
2023/01/27 11:49:49;;;;;;;10.55;5.68;;;;;;;;;;6264039;28;20077;-77
2023/01/27 11:52:51;;;;;;;;;;;;;;;;;;6263496;28;20052;-77
2023/01/27 11:55:55;;;;;;;9.13;5.35;;;;;;;;;;6261472;28;21091;-76
2023/01/27 11:59:01;;;;;;;11.65;5.57;;;;;;;;;;6260473;28;20329;-72
2023/01/27 12:02:13;;;;;;;11.50;5.28;;;;;;;;;;6260893;28;20352;-68
2023/01/27 12:05:17;;;;;;;12.85;6.03;;;;;;;;;;6262942;28;20099;-73
2023/01/27 12:08:38;;;;;;;12.95;6.15;;;;;;;;;;6262705;28;20057;-70
2023/01/27 12:11:41;;;;;;;12.68;6.07;;;;;;;;;;6262928;28;20053;-76
2023/01/27 12:14:48;;;;;;;10.95;5.95;;;;;;;;;;6261976;28;20045;-72
2023/01/27 12:17:51;;;;;;;10.40;5.57;;;;;;;;;;6259725;28;20053;-71
2023/01/27 12:20:59;;;;;;;10.85;6.00;;;;;;;;;;6267473;28;20126;-72
2023/01/27 12:24:00;;;;;;;17.65;7.07;;;;;;;;;;6265973;28;20060;-75
2023/01/27 12:27:04;;;;;;;14.77;6.72;;;;;;;;;;6260992;28;20053;-78
2023/01/27 12:30:13;;;;;;;14.52;6.07;;;;;;;;;;6259769;28;20057;-76
2023/01/27 12:33:22;;;;;;;10.85;5.88;;;;;;;;;;6262138;28;20067;-76
2023/01/27 12:36:24;;;;;;;9.65;5.70;;;;;;;;;;6261140;28;20076;-78
2023/01/27 12:39:42;;;;;;;11.63;5.88;;;;;;;;;;6266630;28;20118;-76
2023/01/27 12:42:49;;;;;;;13.55;6.18;;;;;;;;;;6264199;28;20045;-70
2023/01/27 12:46:05;;;;;;;11.48;5.93;;;;;;;;;;6266489;28;20278;-73
2023/01/27 12:49:12;;;;;;;12.38;6.30;;;;;;;;;;6268409;28;20242;-70
2023/01/27 12:52:18;;;;;;;11.32;6.07;;;;;;;;;;6263222;28;20049;-72
2023/01/27 12:55:30;;;;;;;10.63;5.40;;;;;;;;;;6267698;28;20331;-71
2023/01/27 12:58:36;;;;;;;10.73;6.25;;;;;;;;;;6267095;28;20045;-70
2023/01/27 13:01:40;;;;;;;11.55;6.38;;;;;;;;;;6269643;28;20056;-71
2023/01/27 13:04:42;;;;;;;10.73;5.95;;;;;;;;;;6267284;28;20210;-69
2023/01/27 13:07:45;;;;;;;10.98;5.82;;;;;;;;;;6265359;28;20053;-68
2023/01/27 13:10:51;;;;;;;13.90;6.57;;;;;;;;;;6261102;28;20370;-66
2023/01/27 13:13:57;;;;;;;13.48;6.20;;;;;;;;;;6267491;28;20108;-71
2023/01/27 13:16:59;;;;;;;11.40;5.97;;;;;;;;;;6267346;28;20198;-70
2023/01/27 13:20:04;;;;;;;11.80;6.05;;;;;;;;;;6266510;28;20124;-70
2023/01/27 13:23:09;;;;;;;11.80;6.63;;;;;;;;;;6273804;28;20057;-71
2023/01/27 13:26:15;;;;;;;12.68;6.60;;;;;;;;;;6271476;28;20058;-68
2023/01/27 13:29:21;;;;;;;13.05;6.68;;;;;;;;;;6270515;28;20064;-72
2023/01/27 13:32:26;;;;;;;12.80;6.90;;;;;;;;;;6269151;28;20049;-66
2023/01/27 13:35:31;;;;;;;10.68;6.20;;;;;;;;;;6269698;28;20049;-69
2023/01/27 13:38:40;;;;;;;13.32;6.43;;;;;;;;;;6272156;28;20053;-70
2023/01/27 13:41:46;;;;;;;14.27;6.68;;;;;;;;;;6272018;28;20245;-72
2023/01/27 13:44:54;;;;;;;11.23;6.43;;;;;;;;;;6271003;28;20091;-72
2023/01/27 13:47:59;;;;;;;11.98;6.60;;;;;;;;;;6269535;28;20060;-73
2023/01/27 13:51:04;;;;;;;11.75;5.82;;;;;;;;;;6266859;28;20094;-71
2023/01/27 13:54:06;;;;;;;12.48;6.93;;;;;;;;;;6267207;28;20052;-70
2023/01/27 13:57:41;;;;;;;12.85;6.55;;;;;;;;;;6268658;28;20053;-72
2023/01/27 14:00:49;;;;;;;11.32;5.90;;;;;;;;;;6267169;28;20056;-71
2023/01/27 14:04:08;;;;;;;12.07;6.85;;;;;;;;;;6263733;28;20092;-70
2023/01/27 14:07:18;;;;;;;11.55;6.25;;;;;;;;;;6271189;28;20056;-72
2023/01/27 14:10:24;;;;;;;14.30;6.70;;;;;;;;;;6269203;28;20287;-68
2023/01/27 14:13:37;;;;;;;12.02;6.18;;;;;;;;;;6267166;28;20095;-71
2023/01/27 14:16:48;;;;;;;12.57;6.03;;;;;;;;;;6265681;28;20056;-72
2023/01/27 14:19:57;;;;;;;12.23;6.35;;;;;;;;;;6264067;28;20046;-72
2023/01/27 14:23:05;;;;;;;12.20;6.10;;;;;;;;;;6266163;28;20067;-68
2023/01/27 14:26:14;;;;;;;13.00;6.15;;;;;;;;;;6264901;28;20070;-70
2023/01/27 14:29:27;;;;;;;10.70;5.95;;;;;;;;;;6264019;28;20242;-67
2023/01/27 14:32:34;;;;;;;11.38;6.35;;;;;;;;;;6265982;28;20072;-73
2023/01/27 14:35:43;;;;;;;12.57;6.18;;;;;;;;;;6264137;28;20053;-71
2023/01/27 14:38:51;;;;;;;12.77;5.95;;;;;;;;;;6264443;28;20352;-71
2023/01/27 14:42:00;;;;;;;11.88;5.90;;;;;;;;;;6264088;28;20046;-70
2023/01/27 14:45:07;;;;;;;11.88;5.88;;;;;;;;;;6264635;28;20100;-71
2023/01/27 14:48:19;;;;;;;12.25;6.80;;;;;;;;;;6264490;28;20123;-72
2023/01/27 14:51:27;;;;;;;10.02;5.40;;;;;;;;;;6265792;28;20134;-70
2023/01/27 14:54:43;;;;;;;13.48;6.00;;;;;;;;;;6263166;28;20053;-71
2023/01/27 14:57:48;;;;;;;12.93;7.03;;;;;;;;;;6265278;28;20053;-71
2023/01/27 15:00:57;;;;;;;14.68;7.03;;;;;;;;;;6261693;28;20102;-71
2023/01/27 15:04:19;;;;;;;13.38;6.40;;;;;;;;;;6263842;28;20050;-70
2023/01/27 15:07:26;;;;;;;12.10;5.90;;;;;;;;;;6264406;28;20279;-71
2023/01/27 15:10:28;;;;;;;12.13;6.68;;;;;;;;;;6262876;28;20052;-71
2023/01/27 15:13:45;;;;;;;14.63;7.10;;;;;;;;;;6263676;28;20320;-70
2023/01/27 15:16:55;;;;;;;11.60;6.57;;;;;;;;;;6263615;28;20068;-70
2023/01/27 15:20:12;;;;;;;14.23;7.13;;;;;;;;;;6265198;28;20303;-71
2023/01/27 15:23:23;;;;;;;12.57;6.43;;;;;;;;;;6262623;28;20063;-72
2023/01/27 15:26:27;;;;;;;11.20;6.65;;;;;;;;;;6262549;28;20321;-72
2023/01/27 15:29:30;;;;;;;14.60;7.30;;;;;;;;;;6262784;28;21881;-72
2023/01/27 15:32:36;;;;;;;12.65;6.70;;;;;;;;;;6261201;28;20057;-70
2023/01/27 15:35:40;;;;;;;14.80;6.75;;;;;;;;;;6261596;28;21188;-70
2023/01/27 15:38:42;;;;;;;15.68;8.10;;;;;;;;;;6260263;28;20053;-71
2023/01/27 15:41:54;;;;;;;12.18;6.95;;;;;;;;;;6261542;28;20057;-72
2023/01/27 15:45:00;;;;;;;12.15;6.40;;;;;;;;;;6261329;28;20053;-68
2023/01/27 15:48:03;;;;;;;14.07;6.30;;;;;;;;;;6259307;28;20071;-70
2023/01/27 15:51:07;;;;;;;13.40;7.10;;;;;;;;;;6261509;28;20053;-69
2023/01/27 15:54:16;;;;;;;14.23;7.22;;;;;;;;;;6260211;28;20220;-71
2023/01/27 15:57:28;;;;;;;13.57;6.97;;;;;;;;;;6261214;28;20096;-70
2023/01/27 16:00:32;;;;;;;13.13;6.40;;;;;;;;;;6261742;28;20053;-70
2023/01/27 16:03:36;;;;;;;10.90;6.10;;;;;;;;;;6261570;28;20056;-71
2023/01/27 16:06:46;;;;;;;12.77;6.78;;;;;;;;;;6259842;28;20459;-66
2023/01/27 16:09:50;;;;;;;12.07;6.95;;;;;;;;;;6262905;28;20345;-70
2023/01/27 16:13:25;;;;;;;12.17;6.57;;;;;;;;;;6261928;28;20131;-65
2023/01/27 16:16:33;;;;;;;;;;;;;;;;;;6260799;28;20107;-69
2023/01/27 16:19:37;;;;;;;13.02;6.07;;;;;;;;;;6260198;28;19967;-68
2023/01/27 16:22:40;;;;;;;;;;;;;;;;;;6261297;28;20132;-67
2023/01/27 16:25:44;;;;;;;12.73;7.07;;;;;;;;;;6261640;28;20176;-70
2023/01/27 16:28:48;;;;;;;12.23;6.57;;;;;;;;;;6261686;28;20264;-71
2023/01/27 16:31:52;;;;;;;13.38;6.07;;;;;;;;;;6261251;28;20053;-69
2023/01/27 16:34:56;;;;;;;13.33;7.20;;;;;;;;;;6261847;28;20107;-69
2023/01/27 16:38:18;;;;;;;13.68;6.80;;;;;;;;;;6261942;28;20053;-67
2023/01/27 16:41:22;;;;;;;14.77;7.05;;;;;;;;;;6260890;28;20072;-71
2023/01/27 16:44:27;;;;;;;13.23;7.25;;;;;;;;;;6263400;28;20053;-70
2023/01/27 16:47:31;;;;;;;14.68;7.55;;;;;;;;;;6262995;28;20112;-68
2023/01/27 16:50:35;;;;;;;13.30;6.57;;;;;;;;;;6262984;28;20095;-70
2023/01/27 16:53:43;;;;;;;16.17;7.45;;;;;;;;;;6261039;28;20340;-71
2023/01/27 16:56:48;;;;;;;13.18;6.82;;;;;;;;;;6263549;28;20056;-70
2023/01/27 16:59:50;;;;;;;12.98;6.88;;;;;;;;;;6264525;28;20056;-69
2023/01/27 17:02:53;;;;;;;11.50;6.45;;;;;;;;;;6265484;28;20053;-70
2023/01/27 17:06:02;;;;;;;13.93;6.60;;;;;;;;;;6265587;28;20100;-71
2023/01/27 17:09:19;;;;;;;12.10;6.45;;;;;;;;;;6265407;28;20045;-71
2023/01/27 17:12:33;;;;;;;12.52;6.78;;;;;;;;;;6264807;28;20064;-70
2023/01/27 17:15:36;;;;;;;13.40;6.57;;;;;;;;;;6266866;28;20052;-71
2023/01/27 17:18:39;;;;;;;14.13;6.38;;;;;;;;;;6265690;28;20064;-71
2023/01/27 17:21:43;;;;;;;14.38;7.07;;;;;;;;;;6263473;28;20127;-70
2023/01/27 17:24:51;;;;;;;13.65;7.25;;;;;;;;;;6268493;28;20049;-70
2023/01/27 17:27:53;;;;;;;19.10;9.32;;;;;;;;;;6264559;28;20269;-71
2023/01/27 17:31:01;;;;;;;56.55;24.95;;;;;;;;;;6274047;28;20095;-70
2023/01/27 17:34:03;;;;;;;97.15;39.50;;;;;;;;;;6267372;28;20106;-72
2023/01/27 17:37:14;;;;;;;119.22;48.97;;;;;;;;;;6266314;28;20148;-72
2023/01/27 17:40:19;;;;;;;53.58;23.90;;;;;;;;;;6266972;28;20108;-70
2023/01/27 17:43:27;;;;;;;15.32;8.13;;;;;;;;;;6267778;28;20064;-70
2023/01/27 17:46:32;;;;;;;15.02;7.25;;;;;;;;;;6266766;28;20088;-67
2023/01/27 17:49:33;;;;;;;12.75;6.72;;;;;;;;;;6266467;28;20064;-70
2023/01/27 17:52:35;;;;;;;14.88;7.30;;;;;;;;;;6266519;28;20049;-69
2023/01/27 17:55:38;;;;;;;14.13;7.15;;;;;;;;;;6267260;28;20052;-69
2023/01/27 17:58:42;;;;;;;14.70;7.30;;;;;;;;;;6267617;28;20312;-70
2023/01/27 18:01:44;;;;;;;16.85;7.18;;;;;;;;;;6268977;28;20103;-70
2023/01/27 18:04:46;;;;;;;11.75;6.43;;;;;;;;;;6265682;28;20129;-70
2023/01/27 18:07:48;;;;;;;15.77;7.60;;;;;;;;;;6264457;28;20130;-70
2023/01/27 18:10:52;;;;;;;17.88;7.38;;;;;;;;;;6266040;28;20052;-69
2023/01/27 18:13:55;;;;;;;14.80;6.73;;;;;;;;;;6266786;28;20048;-70
2023/01/27 18:17:01;;;;;;;12.32;7.47;;;;;;;;;;6265884;28;20045;-65
2023/01/27 18:20:07;;;;;;;13.50;7.35;;;;;;;;;;6262327;28;20045;-71
2023/01/27 18:23:17;;;;;;;11.77;7.30;;;;;;;;;;6264777;28;20084;-71
2023/01/27 18:26:22;;;;;;;16.38;7.38;;;;;;;;;;6266690;28;20072;-70
2023/01/27 18:29:26;;;;;;;13.25;6.90;;;;;;;;;;6266949;28;20242;-71
2023/01/27 18:32:30;;;;;;;16.13;7.22;;;;;;;;;;6265365;28;20042;-71
2023/01/27 18:35:33;;;;;;;13.30;7.13;;;;;;;;;;6265830;28;20061;-70